sensor_id;sensor_type;location;lat;lon;timestamp;temperature;humidity
18932;DHT22;9598;50.954;3.112;2023-02-18T00:03:21;12.20;99.90
18932;DHT22;9598;50.954;3.112;2023-02-18T00:08:23;12.20;99.90
18932;DHT22;9598;50.954;3.112;2023-02-18T00:13:27;12.20;99.90
18932;DHT22;9598;50.954;3.112;2023-02-18T00:18:29;12.20;99.90
18932;DHT22;9598;50.954;3.112;2023-02-18T00:23:31;12.20;99.90
18932;DHT22;9598;50.954;3.112;2023-02-18T00:28:35;12.20;99.90
18932;DHT22;9598;50.954;3.112;2023-02-18T00:33:37;12.10;99.90
18932;DHT22;9598;50.954;3.112;2023-02-18T00:38:43;12.10;99.90
18932;DHT22;9598;50.954;3.112;2023-02-18T00:43:47;12.10;99.90
18932;DHT22;9598;50.954;3.112;2023-02-18T00:48:49;12.00;99.90
18932;DHT22;9598;50.954;3.112;2023-02-18T00:53:51;12.00;99.90
18932;DHT22;9598;50.954;3.112;2023-02-18T00:58:55;12.00;99.90
18932;DHT22;9598;50.954;3.112;2023-02-18T01:03:57;12.00;99.90
18932;DHT22;9598;50.954;3.112;2023-02-18T01:08:59;12.00;99.90
18932;DHT22;9598;50.954;3.112;2023-02-18T01:14:05;12.00;99.90
18932;DHT22;9598;50.954;3.112;2023-02-18T01:19:07;12.00;99.90
18932;DHT22;9598;50.954;3.112;2023-02-18T01:24:09;12.00;99.90
18932;DHT22;9598;50.954;3.112;2023-02-18T01:29:12;12.00;99.90
18932;DHT22;9598;50.954;3.112;2023-02-18T01:34:14;11.90;99.90
18932;DHT22;9598;50.954;3.112;2023-02-18T01:39:17;12.00;99.90
18932;DHT22;9598;50.954;3.112;2023-02-18T01:44:23;11.90;99.90
18932;DHT22;9598;50.954;3.112;2023-02-18T01:49:29;11.90;99.90
18932;DHT22;9598;50.954;3.112;2023-02-18T01:54:37;12.00;99.90
18932;DHT22;9598;50.954;3.112;2023-02-18T01:59:44;11.90;99.90
18932;DHT22;9598;50.954;3.112;2023-02-18T02:04:47;11.90;99.90
18932;DHT22;9598;50.954;3.112;2023-02-18T02:09:52;11.90;99.90
18932;DHT22;9598;50.954;3.112;2023-02-18T02:15:15;11.90;99.90
18932;DHT22;9598;50.954;3.112;2023-02-18T02:20:59;11.90;99.90
18932;DHT22;9598;50.954;3.112;2023-02-18T02:37:32;11.80;99.90
18932;DHT22;9598;50.954;3.112;2023-02-18T02:42:46;11.80;99.90
18932;DHT22;9598;50.954;3.112;2023-02-18T02:47:58;11.80;99.90
18932;DHT22;9598;50.954;3.112;2023-02-18T02:53:08;11.80;99.90
18932;DHT22;9598;50.954;3.112;2023-02-18T02:58:16;11.70;99.90
18932;DHT22;9598;50.954;3.112;2023-02-18T03:03:41;11.70;99.90
18932;DHT22;9598;50.954;3.112;2023-02-18T03:08:57;11.70;99.90
18932;DHT22;9598;50.954;3.112;2023-02-18T03:14:08;11.70;99.90
18932;DHT22;9598;50.954;3.112;2023-02-18T03:19:19;11.80;99.90
18932;DHT22;9598;50.954;3.112;2023-02-18T03:24:28;11.80;99.90
18932;DHT22;9598;50.954;3.112;2023-02-18T03:29:32;11.70;99.90
18932;DHT22;9598;50.954;3.112;2023-02-18T03:34:40;11.70;99.90
18932;DHT22;9598;50.954;3.112;2023-02-18T03:39:48;11.70;99.90
18932;DHT22;9598;50.954;3.112;2023-02-18T03:44:52;11.70;99.90
18932;DHT22;9598;50.954;3.112;2023-02-18T03:49:56;11.70;99.90
18932;DHT22;9598;50.954;3.112;2023-02-18T03:55:00;11.70;99.90
18932;DHT22;9598;50.954;3.112;2023-02-18T04:00:03;11.60;99.90
18932;DHT22;9598;50.954;3.112;2023-02-18T04:05:13;11.60;99.90
18932;DHT22;9598;50.954;3.112;2023-02-18T04:10:19;11.60;99.90
18932;DHT22;9598;50.954;3.112;2023-02-18T04:15:22;11.60;99.90
18932;DHT22;9598;50.954;3.112;2023-02-18T04:20:25;11.60;99.90
18932;DHT22;9598;50.954;3.112;2023-02-18T04:25:28;11.60;99.90
18932;DHT22;9598;50.954;3.112;2023-02-18T04:30:30;11.50;99.90
18932;DHT22;9598;50.954;3.112;2023-02-18T04:35:32;11.50;99.90
18932;DHT22;9598;50.954;3.112;2023-02-18T04:40:37;11.50;99.90
18932;DHT22;9598;50.954;3.112;2023-02-18T04:45:40;11.50;99.90
18932;DHT22;9598;50.954;3.112;2023-02-18T04:50:43;11.50;99.90
18932;DHT22;9598;50.954;3.112;2023-02-18T04:55:50;11.50;99.90
18932;DHT22;9598;50.954;3.112;2023-02-18T05:00:52;11.50;99.90
18932;DHT22;9598;50.954;3.112;2023-02-18T05:05:57;11.50;99.90
18932;DHT22;9598;50.954;3.112;2023-02-18T05:11:04;11.50;99.90
18932;DHT22;9598;50.954;3.112;2023-02-18T05:16:07;11.50;99.90
18932;DHT22;9598;50.954;3.112;2023-02-18T05:21:09;11.50;99.90
18932;DHT22;9598;50.954;3.112;2023-02-18T05:26:13;11.50;99.90
18932;DHT22;9598;50.954;3.112;2023-02-18T05:31:15;11.50;99.90
18932;DHT22;9598;50.954;3.112;2023-02-18T05:36:17;11.50;99.90
18932;DHT22;9598;50.954;3.112;2023-02-18T05:41:20;11.50;99.90
18932;DHT22;9598;50.954;3.112;2023-02-18T05:46:23;11.50;99.90
18932;DHT22;9598;50.954;3.112;2023-02-18T05:51:25;11.50;99.90
18932;DHT22;9598;50.954;3.112;2023-02-18T05:56:28;11.50;99.90
18932;DHT22;9598;50.954;3.112;2023-02-18T06:01:31;11.50;99.90
18932;DHT22;9598;50.954;3.112;2023-02-18T06:06:33;11.50;99.90
18932;DHT22;9598;50.954;3.112;2023-02-18T06:11:36;11.50;99.90
18932;DHT22;9598;50.954;3.112;2023-02-18T06:16:38;11.50;99.90
18932;DHT22;9598;50.954;3.112;2023-02-18T06:21:41;11.40;99.90
18932;DHT22;9598;50.954;3.112;2023-02-18T06:26:44;11.50;99.90
18932;DHT22;9598;50.954;3.112;2023-02-18T06:31:46;11.40;99.90
18932;DHT22;9598;50.954;3.112;2023-02-18T06:36:48;11.40;99.90
18932;DHT22;9598;50.954;3.112;2023-02-18T06:41:52;11.50;99.90
18932;DHT22;9598;50.954;3.112;2023-02-18T06:46:54;11.40;99.90
18932;DHT22;9598;50.954;3.112;2023-02-18T06:51:56;11.40;99.90
18932;DHT22;9598;50.954;3.112;2023-02-18T06:56:59;11.50;99.90
18932;DHT22;9598;50.954;3.112;2023-02-18T07:02:02;11.40;99.90
18932;DHT22;9598;50.954;3.112;2023-02-18T07:07:04;11.40;99.90
18932;DHT22;9598;50.954;3.112;2023-02-18T07:12:07;11.40;99.90
18932;DHT22;9598;50.954;3.112;2023-02-18T07:17:09;11.30;99.90
18932;DHT22;9598;50.954;3.112;2023-02-18T07:22:11;11.30;99.90
18932;DHT22;9598;50.954;3.112;2023-02-18T07:27:15;11.30;99.90
18932;DHT22;9598;50.954;3.112;2023-02-18T07:32:18;11.20;99.90
18932;DHT22;9598;50.954;3.112;2023-02-18T07:37:20;11.20;99.90
18932;DHT22;9598;50.954;3.112;2023-02-18T07:42:24;11.30;99.90
18932;DHT22;9598;50.954;3.112;2023-02-18T07:47:26;11.20;99.90
18932;DHT22;9598;50.954;3.112;2023-02-18T07:52:28;11.30;99.90
18932;DHT22;9598;50.954;3.112;2023-02-18T07:57:31;11.30;99.90
18932;DHT22;9598;50.954;3.112;2023-02-18T08:02:53;11.30;99.90
18932;DHT22;9598;50.954;3.112;2023-02-18T08:07:55;11.40;99.90
18932;DHT22;9598;50.954;3.112;2023-02-18T08:12:59;11.40;99.90
18932;DHT22;9598;50.954;3.112;2023-02-18T08:18:02;11.40;99.90
18932;DHT22;9598;50.954;3.112;2023-02-18T08:23:05;11.40;99.90
18932;DHT22;9598;50.954;3.112;2023-02-18T08:28:08;11.50;99.90
18932;DHT22;9598;50.954;3.112;2023-02-18T08:33:10;11.50;99.90
18932;DHT22;9598;50.954;3.112;2023-02-18T08:38:13;11.60;99.90
18932;DHT22;9598;50.954;3.112;2023-02-18T08:43:17;11.60;99.90
18932;DHT22;9598;50.954;3.112;2023-02-18T08:48:19;11.60;99.90
18932;DHT22;9598;50.954;3.112;2023-02-18T08:53:21;11.60;99.90
18932;DHT22;9598;50.954;3.112;2023-02-18T08:58:25;11.70;99.90
18932;DHT22;9598;50.954;3.112;2023-02-18T09:03:27;11.70;99.90
18932;DHT22;9598;50.954;3.112;2023-02-18T09:08:29;11.80;99.90
18932;DHT22;9598;50.954;3.112;2023-02-18T09:13:33;11.80;99.90
18932;DHT22;9598;50.954;3.112;2023-02-18T09:18:35;11.80;99.90
18932;DHT22;9598;50.954;3.112;2023-02-18T09:23:38;11.90;99.90
18932;DHT22;9598;50.954;3.112;2023-02-18T09:28:42;11.90;99.90
18932;DHT22;9598;50.954;3.112;2023-02-18T09:33:46;11.90;99.90
18932;DHT22;9598;50.954;3.112;2023-02-18T09:38:49;12.00;99.90
18932;DHT22;9598;50.954;3.112;2023-02-18T09:43:55;12.00;99.90
18932;DHT22;9598;50.954;3.112;2023-02-18T09:49:00;12.10;99.90
18932;DHT22;9598;50.954;3.112;2023-02-18T09:54:03;12.10;99.90
18932;DHT22;9598;50.954;3.112;2023-02-18T09:59:12;12.10;99.90
18932;DHT22;9598;50.954;3.112;2023-02-18T10:04:17;12.20;99.90
18932;DHT22;9598;50.954;3.112;2023-02-18T10:09:29;12.20;99.90
18932;DHT22;9598;50.954;3.112;2023-02-18T10:14:33;12.20;99.90
18932;DHT22;9598;50.954;3.112;2023-02-18T10:19:37;12.30;99.90
18932;DHT22;9598;50.954;3.112;2023-02-18T10:24:43;12.30;99.90
18932;DHT22;9598;50.954;3.112;2023-02-18T10:29:49;12.30;99.90
18932;DHT22;9598;50.954;3.112;2023-02-18T10:34:53;12.40;99.90
18932;DHT22;9598;50.954;3.112;2023-02-18T10:40:06;12.40;99.90
18932;DHT22;9598;50.954;3.112;2023-02-18T10:45:21;12.40;99.90
18932;DHT22;9598;50.954;3.112;2023-02-18T10:50:27;12.50;99.90
18932;DHT22;9598;50.954;3.112;2023-02-18T10:55:36;12.50;99.90
18932;DHT22;9598;50.954;3.112;2023-02-18T11:00:40;12.60;99.90
18932;DHT22;9598;50.954;3.112;2023-02-18T11:05:42;12.70;99.90
18932;DHT22;9598;50.954;3.112;2023-02-18T11:10:46;12.70;99.90
18932;DHT22;9598;50.954;3.112;2023-02-18T11:15:59;12.70;99.90
18932;DHT22;9598;50.954;3.112;2023-02-18T11:21:04;12.70;99.90
18932;DHT22;9598;50.954;3.112;2023-02-18T11:26:11;12.70;99.90
18932;DHT22;9598;50.954;3.112;2023-02-18T11:31:21;12.70;99.90
18932;DHT22;9598;50.954;3.112;2023-02-18T11:36:25;12.70;99.90
18932;DHT22;9598;50.954;3.112;2023-02-18T11:41:32;12.70;99.90
18932;DHT22;9598;50.954;3.112;2023-02-18T11:46:37;12.70;99.90
18932;DHT22;9598;50.954;3.112;2023-02-18T11:51:39;12.80;99.90
18932;DHT22;9598;50.954;3.112;2023-02-18T11:56:54;12.80;99.90
18932;DHT22;9598;50.954;3.112;2023-02-18T12:02:04;12.70;99.90
18932;DHT22;9598;50.954;3.112;2023-02-18T12:07:16;12.80;99.90
18932;DHT22;9598;50.954;3.112;2023-02-18T12:12:26;12.80;99.90
18932;DHT22;9598;50.954;3.112;2023-02-18T12:17:44;12.90;99.90
18932;DHT22;9598;50.954;3.112;2023-02-18T12:22:55;12.90;99.90
18932;DHT22;9598;50.954;3.112;2023-02-18T12:28:17;12.90;99.90
18932;DHT22;9598;50.954;3.112;2023-02-18T12:33:31;12.90;99.90
18932;DHT22;9598;50.954;3.112;2023-02-18T12:38:54;12.90;99.90
18932;DHT22;9598;50.954;3.112;2023-02-18T12:44:07;12.90;99.90
18932;DHT22;9598;50.954;3.112;2023-02-18T12:49:45;12.90;99.90
18932;DHT22;9598;50.954;3.112;2023-02-18T12:55:08;12.80;99.90
18932;DHT22;9598;50.954;3.112;2023-02-18T13:05:58;12.80;99.90
18932;DHT22;9598;50.954;3.112;2023-02-18T13:11:22;12.80;99.90
18932;DHT22;9598;50.954;3.112;2023-02-18T13:16:27;12.70;99.90
18932;DHT22;9598;50.954;3.112;2023-02-18T13:21:31;12.70;99.90
18932;DHT22;9598;50.954;3.112;2023-02-18T13:26:34;12.70;99.90
18932;DHT22;9598;50.954;3.112;2023-02-18T13:31:43;12.60;99.90
18932;DHT22;9598;50.954;3.112;2023-02-18T13:36:56;12.60;99.90
18932;DHT22;9598;50.954;3.112;2023-02-18T13:42:22;12.50;99.90
18932;DHT22;9598;50.954;3.112;2023-02-18T13:47:36;12.50;99.90
18932;DHT22;9598;50.954;3.112;2023-02-18T13:52:40;12.50;99.90
18932;DHT22;9598;50.954;3.112;2023-02-18T13:57:46;12.50;99.90
18932;DHT22;9598;50.954;3.112;2023-02-18T14:02:56;12.50;99.90
18932;DHT22;9598;50.954;3.112;2023-02-18T14:08:10;12.50;99.90
18932;DHT22;9598;50.954;3.112;2023-02-18T14:13:37;12.50;99.90
18932;DHT22;9598;50.954;3.112;2023-02-18T14:18:59;12.50;99.90
18932;DHT22;9598;50.954;3.112;2023-02-18T14:24:10;12.50;99.90
18932;DHT22;9598;50.954;3.112;2023-02-18T14:29:18;12.50;99.90
18932;DHT22;9598;50.954;3.112;2023-02-18T14:34:45;12.50;99.90
18932;DHT22;9598;50.954;3.112;2023-02-18T14:39:59;12.50;99.90
18932;DHT22;9598;50.954;3.112;2023-02-18T14:45:17;12.50;99.90
18932;DHT22;9598;50.954;3.112;2023-02-18T14:50:22;12.50;99.90
18932;DHT22;9598;50.954;3.112;2023-02-18T14:55:28;12.50;99.90
18932;DHT22;9598;50.954;3.112;2023-02-18T15:00:33;12.50;99.90
18932;DHT22;9598;50.954;3.112;2023-02-18T15:05:37;12.50;99.90
18932;DHT22;9598;50.954;3.112;2023-02-18T15:10:42;12.50;99.90
18932;DHT22;9598;50.954;3.112;2023-02-18T15:15:48;12.50;99.90
18932;DHT22;9598;50.954;3.112;2023-02-18T15:20:51;12.50;99.90
18932;DHT22;9598;50.954;3.112;2023-02-18T15:25:54;12.50;99.90
18932;DHT22;9598;50.954;3.112;2023-02-18T15:30:57;12.40;99.90
18932;DHT22;9598;50.954;3.112;2023-02-18T15:36:00;12.40;99.90
18932;DHT22;9598;50.954;3.112;2023-02-18T15:41:04;12.30;99.90
18932;DHT22;9598;50.954;3.112;2023-02-18T15:46:12;12.30;99.90
18932;DHT22;9598;50.954;3.112;2023-02-18T15:51:18;12.30;99.90
18932;DHT22;9598;50.954;3.112;2023-02-18T15:56:29;12.20;99.90
18932;DHT22;9598;50.954;3.112;2023-02-18T16:01:32;12.20;99.90
18932;DHT22;9598;50.954;3.112;2023-02-18T16:06:36;12.20;99.90
18932;DHT22;9598;50.954;3.112;2023-02-18T16:11:43;12.10;99.90
18932;DHT22;9598;50.954;3.112;2023-02-18T16:16:59;12.10;99.90
18932;DHT22;9598;50.954;3.112;2023-02-18T16:22:04;12.20;99.90
18932;DHT22;9598;50.954;3.112;2023-02-18T16:27:14;12.10;99.90
18932;DHT22;9598;50.954;3.112;2023-02-18T16:32:17;12.10;99.90
18932;DHT22;9598;50.954;3.112;2023-02-18T16:37:19;12.20;99.90
18932;DHT22;9598;50.954;3.112;2023-02-18T16:42:40;12.20;99.90
18932;DHT22;9598;50.954;3.112;2023-02-18T16:47:43;12.20;99.90
18932;DHT22;9598;50.954;3.112;2023-02-18T16:52:47;12.10;99.90
18932;DHT22;9598;50.954;3.112;2023-02-18T16:57:50;12.10;99.90
18932;DHT22;9598;50.954;3.112;2023-02-18T17:02:55;12.20;99.90
18932;DHT22;9598;50.954;3.112;2023-02-18T17:08:05;12.10;99.90
18932;DHT22;9598;50.954;3.112;2023-02-18T17:13:15;12.10;99.90
18932;DHT22;9598;50.954;3.112;2023-02-18T17:18:17;12.00;99.90
18932;DHT22;9598;50.954;3.112;2023-02-18T17:23:21;12.00;99.90
18932;DHT22;9598;50.954;3.112;2023-02-18T17:28:25;12.00;99.90
18932;DHT22;9598;50.954;3.112;2023-02-18T17:33:27;12.00;99.90
18932;DHT22;9598;50.954;3.112;2023-02-18T17:38:29;12.00;99.90
18932;DHT22;9598;50.954;3.112;2023-02-18T17:43:34;12.00;99.90
18932;DHT22;9598;50.954;3.112;2023-02-18T17:48:36;12.00;99.90
18932;DHT22;9598;50.954;3.112;2023-02-18T17:53:38;12.00;99.90
18932;DHT22;9598;50.954;3.112;2023-02-18T17:58:42;12.00;99.90
18932;DHT22;9598;50.954;3.112;2023-02-18T18:03:46;12.00;99.90
18932;DHT22;9598;50.954;3.112;2023-02-18T18:08:48;12.00;99.90
18932;DHT22;9598;50.954;3.112;2023-02-18T18:13:51;12.00;99.90
18932;DHT22;9598;50.954;3.112;2023-02-18T18:18:54;12.00;99.90
18932;DHT22;9598;50.954;3.112;2023-02-18T18:23:56;12.00;99.90
18932;DHT22;9598;50.954;3.112;2023-02-18T18:28:59;12.00;99.90
18932;DHT22;9598;50.954;3.112;2023-02-18T18:34:01;12.00;99.90
18932;DHT22;9598;50.954;3.112;2023-02-18T18:39:03;12.00;99.90
18932;DHT22;9598;50.954;3.112;2023-02-18T18:44:09;12.00;99.90
18932;DHT22;9598;50.954;3.112;2023-02-18T18:49:11;12.00;99.90
18932;DHT22;9598;50.954;3.112;2023-02-18T18:54:13;12.00;99.90
18932;DHT22;9598;50.954;3.112;2023-02-18T18:59:17;12.00;99.90
18932;DHT22;9598;50.954;3.112;2023-02-18T19:04:19;11.90;99.90
18932;DHT22;9598;50.954;3.112;2023-02-18T19:09:21;12.00;99.90
18932;DHT22;9598;50.954;3.112;2023-02-18T19:14:24;11.90;99.90
18932;DHT22;9598;50.954;3.112;2023-02-18T19:19:27;11.90;99.90
18932;DHT22;9598;50.954;3.112;2023-02-18T19:24:30;11.90;99.90
18932;DHT22;9598;50.954;3.112;2023-02-18T19:29:34;11.90;99.90
18932;DHT22;9598;50.954;3.112;2023-02-18T19:34:36;11.90;99.90
18932;DHT22;9598;50.954;3.112;2023-02-18T19:39:38;11.90;99.90
18932;DHT22;9598;50.954;3.112;2023-02-18T19:44:41;11.90;99.90
18932;DHT22;9598;50.954;3.112;2023-02-18T19:49:44;11.90;99.90
18932;DHT22;9598;50.954;3.112;2023-02-18T19:54:46;11.80;99.90
18932;DHT22;9598;50.954;3.112;2023-02-18T19:59:50;11.80;99.90
18932;DHT22;9598;50.954;3.112;2023-02-18T20:04:52;11.80;99.90
18932;DHT22;9598;50.954;3.112;2023-02-18T20:09:55;11.90;99.90
18932;DHT22;9598;50.954;3.112;2023-02-18T20:14:58;11.80;99.90
18932;DHT22;9598;50.954;3.112;2023-02-18T20:20:01;11.90;99.90
18932;DHT22;9598;50.954;3.112;2023-02-18T20:25:03;11.80;99.90
18932;DHT22;9598;50.954;3.112;2023-02-18T20:30:08;11.90;99.90
18932;DHT22;9598;50.954;3.112;2023-02-18T20:35:11;11.90;99.90
18932;DHT22;9598;50.954;3.112;2023-02-18T20:40:13;11.80;99.90
18932;DHT22;9598;50.954;3.112;2023-02-18T20:45:16;11.80;99.90
18932;DHT22;9598;50.954;3.112;2023-02-18T20:50:18;11.80;99.90
18932;DHT22;9598;50.954;3.112;2023-02-18T20:55:21;11.80;99.90
18932;DHT22;9598;50.954;3.112;2023-02-18T21:00:25;11.80;99.90
18932;DHT22;9598;50.954;3.112;2023-02-18T21:05:27;11.90;99.90
18932;DHT22;9598;50.954;3.112;2023-02-18T21:10:29;11.80;99.90
18932;DHT22;9598;50.954;3.112;2023-02-18T21:15:35;11.90;99.90
18932;DHT22;9598;50.954;3.112;2023-02-18T21:20:37;11.90;99.90
18932;DHT22;9598;50.954;3.112;2023-02-18T21:25:40;11.90;99.90
18932;DHT22;9598;50.954;3.112;2023-02-18T21:30:44;11.90;99.90
18932;DHT22;9598;50.954;3.112;2023-02-18T21:35:46;11.90;99.90
18932;DHT22;9598;50.954;3.112;2023-02-18T21:40:48;11.90;99.90
18932;DHT22;9598;50.954;3.112;2023-02-18T21:45:52;11.90;99.90
18932;DHT22;9598;50.954;3.112;2023-02-18T21:50:54;11.90;99.90
18932;DHT22;9598;50.954;3.112;2023-02-18T21:56:08;11.90;99.90
18932;DHT22;9598;50.954;3.112;2023-02-18T22:01:12;11.80;99.90
18932;DHT22;9598;50.954;3.112;2023-02-18T22:06:14;11.90;99.90
18932;DHT22;9598;50.954;3.112;2023-02-18T22:11:16;11.90;99.90
18932;DHT22;9598;50.954;3.112;2023-02-18T22:16:19;11.80;99.90
18932;DHT22;9598;50.954;3.112;2023-02-18T22:21:21;11.80;99.90
18932;DHT22;9598;50.954;3.112;2023-02-18T22:26:23;11.70;99.90
18932;DHT22;9598;50.954;3.112;2023-02-18T22:31:28;11.70;99.90
18932;DHT22;9598;50.954;3.112;2023-02-18T22:36:31;11.70;99.90
18932;DHT22;9598;50.954;3.112;2023-02-18T22:41:34;11.60;99.90
18932;DHT22;9598;50.954;3.112;2023-02-18T22:46:38;11.60;99.90
18932;DHT22;9598;50.954;3.112;2023-02-18T22:51:41;11.60;99.90
18932;DHT22;9598;50.954;3.112;2023-02-18T22:56:44;11.60;99.90
18932;DHT22;9598;50.954;3.112;2023-02-18T23:01:48;11.60;99.90
18932;DHT22;9598;50.954;3.112;2023-02-18T23:06:52;11.60;99.90
18932;DHT22;9598;50.954;3.112;2023-02-18T23:11:55;11.50;99.90
18932;DHT22;9598;50.954;3.112;2023-02-18T23:17:00;11.50;99.90
18932;DHT22;9598;50.954;3.112;2023-02-18T23:22:18;11.50;99.90
18932;DHT22;9598;50.954;3.112;2023-02-18T23:27:21;11.50;99.90
18932;DHT22;9598;50.954;3.112;2023-02-18T23:32:25;11.50;99.90
18932;DHT22;9598;50.954;3.112;2023-02-18T23:37:30;11.50;99.90
18932;DHT22;9598;50.954;3.112;2023-02-18T23:42:51;11.50;99.90
18932;DHT22;9598;50.954;3.112;2023-02-18T23:47:55;11.50;99.90
18932;DHT22;9598;50.954;3.112;2023-02-18T23:52:57;11.50;99.90
18932;DHT22;9598;50.954;3.112;2023-02-18T23:57:59;11.50;99.90
